createdAt,value
2023-02-14T00:01:55.697Z,94078.72
2023-02-14T00:04:26.865Z,94073.22
2023-02-14T00:06:55.392Z,94079.38
2023-02-14T00:09:24.699Z,94068.28
2023-02-14T00:11:53.707Z,94071.47
2023-02-14T00:14:40.106Z,94080.19
2023-02-14T00:17:08.773Z,94067.50
2023-02-14T00:19:38.603Z,94068.38
2023-02-14T00:22:07.123Z,94072.56
2023-02-14T00:24:35.595Z,94073.06
2023-02-14T00:27:04.156Z,94072.25
2023-02-14T00:29:34.117Z,94070.94
2023-02-14T00:32:02.814Z,94069.63
2023-02-14T00:34:33.408Z,94070.44
2023-02-14T00:37:03.637Z,94079.69
2023-02-14T00:39:32.413Z,94071.47
2023-02-14T00:42:00.879Z,94070.44
2023-02-14T00:44:29.357Z,94069.13
2023-02-14T00:46:58.088Z,94067.53
2023-02-14T00:49:27.612Z,94066.72
2023-02-14T00:51:56.146Z,94066.19
2023-02-14T00:54:26.105Z,94066.19
2023-02-14T00:56:54.541Z,94061.47
2023-02-14T00:59:22.980Z,94065.94
2023-02-14T01:01:51.556Z,94064.88
2023-02-14T01:04:20.144Z,94059.63
2023-02-14T01:06:48.902Z,94066.22
2023-02-14T01:09:17.346Z,94067.00
2023-02-14T01:11:47.175Z,94070.50
2023-02-14T01:14:15.642Z,94058.09
2023-02-14T01:16:44.259Z,94061.78
2023-02-14T01:19:13.183Z,94063.38
2023-02-14T01:21:42.797Z,94069.13
2023-02-14T01:24:12.014Z,94064.88
2023-02-14T01:26:41.262Z,94063.03
2023-02-14T01:29:11.212Z,94063.09
2023-02-14T01:31:39.790Z,94061.25
2023-02-14T01:34:08.330Z,94065.75
2023-02-14T01:36:39.764Z,94058.88
2023-02-14T01:39:12.361Z,94055.19
2023-02-14T01:41:42.965Z,94054.41
2023-02-14T01:44:59.865Z,94052.56
2023-02-14T01:47:30.681Z,94058.34
2023-02-14T01:50:05.858Z,94044.88
2023-02-14T01:52:38.929Z,94057.56
2023-02-14T01:55:12.619Z,94056.78
2023-02-14T01:57:54.830Z,94059.94
2023-02-14T02:00:43.246Z,94057.28
2023-02-14T02:03:14.485Z,94044.63
2023-02-14T02:05:50.460Z,94048.06
2023-02-14T02:08:19.408Z,94046.22
2023-02-14T02:11:11.874Z,94046.78
2023-02-14T02:13:40.546Z,94036.22
2023-02-14T02:16:31.217Z,94032.53
2023-02-14T02:19:26.353Z,94041.47
2023-02-14T02:22:21.365Z,94037.28
2023-02-14T02:25:01.149Z,94035.44
2023-02-14T02:28:10.070Z,94033.59
2023-02-14T02:31:02.240Z,94024.63
2023-02-14T02:34:22.404Z,94025.13
2023-02-14T02:37:04.745Z,94022.50
2023-02-14T02:39:47.648Z,94025.41
2023-02-14T02:42:31.123Z,94014.88
2023-02-14T02:45:10.304Z,94021.47
2023-02-14T02:47:43.632Z,94020.38
2023-02-14T02:50:42.831Z,94024.09
2023-02-14T02:53:21.198Z,94021.72
2023-02-14T02:56:13.462Z,94025.66
2023-02-14T02:58:47.242Z,94022.50
2023-02-14T03:01:20.595Z,94026.75
2023-02-14T03:04:24.131Z,94035.69
2023-02-14T03:06:53.516Z,94026.22
2023-02-14T03:09:55.209Z,94035.69
2023-02-14T03:12:58.104Z,94025.16
2023-02-14T03:15:40.448Z,94025.97
2023-02-14T03:18:16.698Z,94021.72
2023-02-14T03:20:55.154Z,94014.06
2023-02-14T03:23:29.351Z,94012.22
2023-02-14T03:26:13.250Z,94010.41
2023-02-14T03:28:47.884Z,94011.94
2023-02-14T03:31:23.663Z,94015.13
2023-02-14T03:34:00.637Z,94012.75
2023-02-14T03:36:38.211Z,94015.41
2023-02-14T03:39:12.995Z,94010.41
2023-02-14T03:41:48.948Z,94013.03
2023-02-14T03:44:22.620Z,94012.75
2023-02-14T03:46:56.247Z,94007.72
2023-02-14T03:49:31.666Z,94009.88
2023-02-14T03:52:03.596Z,94010.66
2023-02-14T03:54:33.704Z,94007.72
2023-02-14T03:57:15.387Z,94008.53
2023-02-14T03:59:44.750Z,94009.59
2023-02-14T04:02:18.971Z,94008.00
2023-02-14T04:04:50.558Z,94007.75
2023-02-14T04:07:21.711Z,94010.13
2023-02-14T04:09:51.027Z,94006.69
2023-02-14T04:12:32.250Z,94006.94
2023-02-14T04:15:07.797Z,94011.44
2023-02-14T04:17:53.486Z,94005.34
2023-02-14T04:20:22.301Z,94008.81
2023-02-14T04:22:51.767Z,94008.28
2023-02-14T04:25:21.269Z,94006.16
2023-02-14T04:27:51.390Z,94003.78
2023-02-14T04:30:21.019Z,94010.38
2023-02-14T04:32:49.686Z,94009.84
2023-02-14T04:35:18.538Z,94010.91
2023-02-14T04:37:47.066Z,94007.22
2023-02-14T04:40:17.859Z,94010.38
2023-02-14T04:42:46.502Z,94007.22
2023-02-14T04:45:16.600Z,94000.63
2023-02-14T04:47:45.579Z,94008.53
2023-02-14T04:50:14.952Z,94016.72
2023-02-14T04:52:43.414Z,94008.00
2023-02-14T04:55:12.219Z,94010.38
2023-02-14T04:57:40.649Z,94016.72
2023-02-14T05:00:11.105Z,94010.88
2023-02-14T05:02:40.932Z,94014.59
2023-02-14T05:05:09.898Z,94008.78
2023-02-14T05:07:38.654Z,94013.81
2023-02-14T05:10:08.513Z,94013.53
2023-02-14T05:12:36.946Z,94008.00
2023-02-14T05:15:05.967Z,94014.03
2023-02-14T05:17:34.403Z,94014.06
2023-02-14T05:20:06.099Z,94004.56
2023-02-14T05:22:34.548Z,94009.28
2023-02-14T05:25:03.532Z,94016.16
2023-02-14T05:27:32.015Z,94016.44
2023-02-14T05:30:00.533Z,94014.03
2023-02-14T05:32:29.064Z,94013.03
2023-02-14T05:34:58.059Z,94011.16
2023-02-14T05:37:28.870Z,94009.31
2023-02-14T05:39:57.283Z,94011.13
2023-02-14T05:42:25.732Z,94013.25
2023-02-14T05:44:54.144Z,94008.81
2023-02-14T05:47:22.634Z,94018.81
2023-02-14T05:49:51.119Z,94019.28
2023-02-14T05:52:19.762Z,94016.13
2023-02-14T05:54:49.586Z,94020.66
2023-02-14T05:57:18.468Z,94019.06
2023-02-14T05:59:46.916Z,94017.75
2023-02-14T06:02:16.039Z,94023.03
2023-02-14T06:04:44.749Z,94019.09
2023-02-14T06:07:13.263Z,94016.44
2023-02-14T06:09:41.758Z,94022.50
2023-02-14T06:12:11.558Z,94020.66
2023-02-14T06:14:41.447Z,94030.88
2023-02-14T06:17:10.467Z,94023.00
2023-02-14T06:19:39.564Z,94025.63
2023-02-14T06:22:08.212Z,94027.47
2023-02-14T06:24:37.066Z,94031.16
2023-02-14T06:27:06.564Z,94032.47
2023-02-14T06:29:36.443Z,94032.75
2023-02-14T06:32:08.120Z,94032.50
2023-02-14T06:34:37.007Z,94035.13
2023-02-14T06:37:05.438Z,94039.59
2023-02-14T06:39:33.992Z,94044.06
2023-02-14T06:42:02.694Z,94040.66
2023-02-14T06:44:31.124Z,94049.34
2023-02-14T06:47:00.922Z,94052.22
2023-02-14T06:49:29.377Z,94044.38
2023-02-14T06:51:58.015Z,94048.56
2023-02-14T06:54:26.430Z,94047.00
2023-02-14T06:56:55.180Z,94046.22
2023-02-14T06:59:23.652Z,94040.41
2023-02-14T07:01:52.190Z,94046.22
2023-02-14T07:04:22.346Z,94043.84
2023-02-14T07:06:50.892Z,94046.22
2023-02-14T07:09:19.374Z,94040.41
2023-02-14T07:11:47.832Z,94040.44
2023-02-14T07:14:16.324Z,94044.09
2023-02-14T07:16:44.808Z,94037.25
2023-02-14T07:19:13.307Z,94044.13
2023-02-14T07:21:43.192Z,94047.28
2023-02-14T07:24:12.748Z,94043.63
2023-02-14T07:26:41.165Z,94040.97
2023-02-14T07:29:09.600Z,94042.28
2023-02-14T07:31:38.422Z,94037.78
2023-02-14T07:34:06.868Z,94035.69
2023-02-14T07:36:35.904Z,94043.63
2023-02-14T07:39:05.826Z,94034.94
2023-02-14T07:41:34.250Z,94038.34
2023-02-14T07:44:02.702Z,94041.25
2023-02-14T07:46:31.217Z,94031.47
2023-02-14T07:48:59.684Z,94032.28
2023-02-14T07:51:28.220Z,94035.44
2023-02-14T07:53:56.668Z,94030.69
2023-02-14T07:56:26.558Z,94037.28
2023-02-14T07:58:54.984Z,94036.75
2023-02-14T08:01:23.456Z,94031.47
2023-02-14T08:03:52.728Z,94027.50
2023-02-14T08:06:21.447Z,94029.88
2023-02-14T08:08:50.235Z,94031.47
2023-02-14T08:11:32.809Z,94027.72
2023-02-14T08:16:52.472Z,94023.25
2023-02-14T08:19:21.121Z,94028.00
2023-02-14T08:21:49.539Z,94025.06
2023-02-14T08:24:17.963Z,94017.16
2023-02-14T08:26:46.491Z,94010.84
2023-02-14T08:29:16.938Z,94017.88
2023-02-14T08:31:46.931Z,94013.09
2023-02-14T08:34:16.160Z,94019.97
2023-02-14T08:36:45.932Z,94011.66
2023-02-14T08:39:14.398Z,94007.88
2023-02-14T08:41:42.812Z,94003.53
2023-02-14T08:44:11.615Z,94004.72
2023-02-14T08:46:41.819Z,94006.34
2023-02-14T08:49:11.558Z,94008.28
2023-02-14T08:51:40.010Z,93993.50
2023-02-14T08:54:08.562Z,93994.00
2023-02-14T08:56:37.279Z,93985.69
2023-02-14T08:59:05.779Z,93990.59
2023-02-14T09:01:36.155Z,93993.13
2023-02-14T09:04:06.096Z,93991.31
2023-02-14T09:06:34.634Z,93989.13
2023-02-14T09:09:03.050Z,93996.22
2023-02-14T09:11:31.540Z,93988.31
2023-02-14T09:14:00.085Z,93979.41
2023-02-14T09:16:28.622Z,93987.88
2023-02-14T09:18:57.747Z,93985.22
2023-02-14T09:21:30.376Z,93983.03
2023-02-14T09:23:58.851Z,93978.28
2023-02-14T09:26:27.603Z,93983.88
2023-02-14T09:28:56.044Z,93981.25
2023-02-14T09:31:26.726Z,93982.19
2023-02-14T09:34:13.582Z,93970.19
2023-02-14T09:36:43.681Z,93965.13
2023-02-14T09:39:12.109Z,93967.44
2023-02-14T09:42:38.478Z,93963.56
2023-02-14T09:45:12.595Z,93957.94
2023-02-14T09:47:48.990Z,93958.81
2023-02-14T09:50:24.424Z,93959.38
2023-02-14T09:52:59.040Z,93965.03
2023-02-14T09:55:36.267Z,93956.50
2023-02-14T09:58:14.809Z,93959.78
2023-02-14T10:00:49.713Z,93962.75
2023-02-14T10:03:48.602Z,93947.88
2023-02-14T10:06:40.244Z,93950.44
2023-02-14T10:09:43.011Z,93939.38
2023-02-14T10:12:18.453Z,93938.97
2023-02-14T10:14:47.611Z,93938.44
2023-02-14T10:17:20.813Z,93935.56
2023-02-14T10:19:57.143Z,93935.47
2023-02-14T10:22:35.906Z,93937.25
2023-02-14T10:25:16.804Z,93932.09
2023-02-14T10:27:48.288Z,93935.88
2023-02-14T10:30:21.250Z,93928.06
2023-02-14T10:32:52.162Z,93924.97
2023-02-14T10:35:33.093Z,93914.81
2023-02-14T10:38:17.625Z,93914.97
2023-02-14T10:41:26.252Z,93907.22
2023-02-14T10:44:10.506Z,93910.03
2023-02-14T10:46:46.070Z,93909.34
2023-02-14T10:49:30.711Z,93903.13
2023-02-14T10:52:10.108Z,93902.16
2023-02-14T10:54:41.866Z,93888.94
2023-02-14T10:57:16.584Z,93888.34
2023-02-14T10:59:53.838Z,93887.75
2023-02-14T11:02:28.177Z,93888.13
2023-02-14T11:04:57.461Z,93879.19
2023-02-14T11:07:25.874Z,93865.25
2023-02-14T11:09:54.332Z,93871.16
2023-02-14T11:12:40.478Z,93864.28
2023-02-14T11:15:23.572Z,93860.44
2023-02-14T11:18:09.883Z,93853.69
2023-02-14T11:20:39.516Z,93855.84
2023-02-14T11:23:21.148Z,93852.22
2023-02-14T11:25:56.570Z,93846.91
2023-02-14T11:28:26.517Z,93831.06
2023-02-14T11:30:55.959Z,93839.56
2023-02-14T11:33:35.678Z,93834.66
2023-02-14T11:36:06.873Z,93829.03
2023-02-14T11:38:40.020Z,93821.41
2023-02-14T11:41:13.011Z,93821.41
2023-02-14T11:43:45.273Z,93820.25
2023-02-14T11:46:56.445Z,93817.91
2023-02-14T11:49:32.143Z,93809.13
2023-02-14T11:52:10.572Z,93812.44
2023-02-14T11:54:41.834Z,93815.81
2023-02-14T11:57:23.317Z,93810.16
2023-02-14T11:59:55.894Z,93807.44
2023-02-14T12:02:34.022Z,93803.81
2023-02-14T12:05:07.817Z,93800.78
2023-02-14T12:07:38.555Z,93807.97
2023-02-14T12:10:26.811Z,93793.66
2023-02-14T12:13:00.549Z,93793.09
2023-02-14T12:15:37.974Z,93790.97
2023-02-14T12:18:43.664Z,93788.06
2023-02-14T12:21:45.062Z,93778.56
2023-02-14T12:24:21.671Z,93778.09
2023-02-14T12:26:58.791Z,93775.72
2023-02-14T12:29:34.644Z,93769.63
2023-02-14T12:32:22.533Z,93766.78
2023-02-14T12:34:52.256Z,93769.41
2023-02-14T12:37:42.161Z,93759.81
2023-02-14T12:40:22.779Z,93758.59
2023-02-14T12:43:31.953Z,93756.09
2023-02-14T12:46:18.089Z,93751.34
2023-02-14T12:49:07.180Z,93744.56
2023-02-14T12:51:44.114Z,93748.22
2023-02-14T12:54:50.770Z,93742.56
2023-02-14T12:57:36.776Z,93753.19
2023-02-14T13:00:23.689Z,93752.06
2023-02-14T13:03:23.221Z,93750.66
2023-02-14T13:06:01.912Z,93740.53
2023-02-14T13:09:01.257Z,93738.78
2023-02-14T13:11:40.152Z,93735.16
2023-02-14T13:14:28.519Z,93731.84
2023-02-14T13:17:05.754Z,93724.66
2023-02-14T13:19:45.223Z,93738.44
2023-02-14T13:22:20.026Z,93728.00
2023-02-14T13:24:52.724Z,93722.69
2023-02-14T13:27:25.702Z,93717.25
2023-02-14T13:29:59.894Z,93719.69
2023-02-14T13:32:34.588Z,93714.53
2023-02-14T13:35:04.016Z,93708.34
2023-02-14T13:37:34.445Z,93710.72
2023-02-14T13:40:08.292Z,93703.97
2023-02-14T13:42:57.887Z,93708.06
2023-02-14T13:45:59.460Z,93708.28
2023-02-14T13:48:29.536Z,93704.69
2023-02-14T13:51:00.877Z,93718.97
2023-02-14T13:53:38.288Z,93711.88
2023-02-14T13:56:32.742Z,93714.38
2023-02-14T13:59:05.672Z,93720.03
2023-02-14T14:01:39.361Z,93706.97
2023-02-14T14:04:37.507Z,93709.88
2023-02-14T14:07:30.133Z,93704.78
2023-02-14T14:10:11.107Z,93703.78
2023-02-14T14:12:42.586Z,93706.41
2023-02-14T14:15:17.808Z,93704.13
2023-02-14T14:18:41.450Z,93710.38
2023-02-14T14:21:24.594Z,93701.81
2023-02-14T14:24:22.399Z,93697.78
2023-02-14T14:26:53.210Z,93704.22
2023-02-14T14:29:34.800Z,93700.53
2023-02-14T14:32:10.251Z,93700.53
2023-02-14T14:34:38.811Z,93705.59
2023-02-14T14:37:18.216Z,93700.44
2023-02-14T14:39:53.519Z,93706.69
2023-02-14T14:42:23.304Z,93704.81
2023-02-14T14:44:55.467Z,93704.03
2023-02-14T14:47:26.312Z,93711.69
2023-02-14T14:50:00.642Z,93704.63
2023-02-14T14:52:41.081Z,93711.91
2023-02-14T14:55:19.332Z,93707.91
2023-02-14T14:57:52.219Z,93710.00
2023-02-14T15:00:27.423Z,93714.72
2023-02-14T15:03:06.085Z,93701.66
2023-02-14T15:05:38.467Z,93709.63
2023-02-14T15:08:22.822Z,93718.97
2023-02-14T15:10:55.782Z,93707.16
2023-02-14T15:13:50.815Z,93705.22
2023-02-14T15:16:26.496Z,93711.16
2023-02-14T15:18:59.504Z,93696.25
2023-02-14T15:23:59.642Z,93705.00
2023-02-14T15:26:32.847Z,93710.53
2023-02-14T15:29:03.799Z,93712.28
2023-02-14T15:31:36.834Z,93713.13
2023-02-14T15:34:06.473Z,93716.22
2023-02-14T15:36:36.104Z,93715.03
2023-02-14T15:39:09.967Z,93718.94
2023-02-14T15:41:43.840Z,93715.66
2023-02-14T15:47:24.405Z,93717.84
2023-02-14T15:49:53.011Z,93721.09
2023-02-14T15:52:22.053Z,93720.34
2023-02-14T15:54:50.617Z,93722.78
2023-02-14T15:57:25.120Z,93722.94
2023-02-14T15:59:54.246Z,93720.25
2023-02-14T16:02:34.294Z,93717.91
2023-02-14T16:05:15.631Z,93721.19
2023-02-14T16:08:03.633Z,93720.44
2023-02-14T16:10:35.531Z,93724.81
2023-02-14T16:13:08.688Z,93719.78
2023-02-14T16:15:38.882Z,93729.75
2023-02-14T16:18:34.989Z,93725.25
2023-02-14T16:21:19.190Z,93735.13
2023-02-14T16:23:49.720Z,93743.47
2023-02-14T16:26:18.537Z,93736.47
2023-02-14T16:28:47.317Z,93737.31
2023-02-14T16:31:17.718Z,93736.09
2023-02-14T16:33:47.792Z,93741.13
2023-02-14T16:36:23.795Z,93740.00
2023-02-14T16:38:53.071Z,93745.66
2023-02-14T16:41:24.936Z,93742.00
2023-02-14T16:43:53.915Z,93739.63
2023-02-14T16:46:25.612Z,93745.31
2023-02-14T16:48:55.701Z,93747.69
2023-02-14T16:51:27.673Z,93746.59
2023-02-14T16:53:58.396Z,93753.81
2023-02-14T16:56:31.003Z,93757.56
2023-02-14T16:59:00.131Z,93750.97
2023-02-14T17:01:28.903Z,93755.66
2023-02-14T17:03:58.766Z,93756.91
2023-02-14T17:06:28.991Z,93751.06
2023-02-14T17:08:59.659Z,93761.53
2023-02-14T17:11:29.669Z,93756.69
2023-02-14T17:13:58.327Z,93762.19
2023-02-14T17:16:26.843Z,93776.72
2023-02-14T17:18:55.596Z,93757.81
2023-02-14T17:21:26.078Z,93768.53
2023-02-14T17:23:54.528Z,93770.91
2023-02-14T17:26:24.844Z,93768.53
2023-02-14T17:28:54.022Z,93778.28
2023-02-14T17:31:25.503Z,93778.22
2023-02-14T17:33:54.854Z,93779.81
2023-02-14T17:36:25.158Z,93779.31
2023-02-14T17:38:55.465Z,93781.78
2023-02-14T17:41:26.524Z,93784.09
2023-02-14T17:44:00.222Z,93780.31
2023-02-14T17:46:30.018Z,93788.09
2023-02-14T17:49:02.554Z,93780.88
2023-02-14T17:51:32.884Z,93789.16
2023-02-14T17:54:01.546Z,93788.38
2023-02-14T17:56:30.030Z,93780.69
2023-02-14T17:58:59.903Z,93783.47
2023-02-14T18:01:31.615Z,93794.53
2023-02-14T18:04:00.132Z,93800.88
2023-02-14T18:06:29.107Z,93799.19
2023-02-14T18:08:59.334Z,93791.25
2023-02-14T18:11:29.659Z,93793.44
2023-02-14T18:13:59.702Z,93789.47
2023-02-14T18:16:28.968Z,93782.16
2023-02-14T18:18:57.478Z,93795.44
2023-02-14T18:21:26.036Z,93797.59
2023-02-14T18:23:54.458Z,93795.03
2023-02-14T18:26:24.472Z,93791.59
2023-02-14T18:28:52.863Z,93793.38
2023-02-14T18:31:22.072Z,93788.38
2023-02-14T18:33:51.824Z,93783.06
2023-02-14T18:36:24.401Z,93785.63
2023-02-14T18:38:55.165Z,93780.69
2023-02-14T18:41:26.139Z,93780.50
2023-02-14T18:43:55.196Z,93771.25
2023-02-14T18:46:26.833Z,93778.50
2023-02-14T18:49:00.682Z,93780.88
2023-02-14T18:51:31.700Z,93771.44
2023-02-14T18:54:02.376Z,93772.09
2023-02-14T18:56:35.723Z,93770.59
2023-02-14T18:59:07.778Z,93773.59
2023-02-14T19:01:39.668Z,93775.16
2023-02-14T19:04:12.085Z,93767.50
2023-02-14T19:06:42.617Z,93770.47
2023-02-14T19:09:13.851Z,93765.13
2023-02-14T19:11:43.797Z,93762.34
2023-02-14T19:14:14.152Z,93758.72
2023-02-14T19:16:51.241Z,93761.56
2023-02-14T19:19:22.905Z,93757.03
2023-02-14T19:21:52.180Z,93755.72
2023-02-14T19:24:23.068Z,93762.53
2023-02-14T19:26:55.172Z,93756.09
2023-02-14T19:29:24.051Z,93752.66
2023-02-14T19:31:56.104Z,93756.25
2023-02-14T19:34:29.233Z,93762.06
2023-02-14T19:37:00.457Z,93751.66
2023-02-14T19:39:30.771Z,93754.22
2023-02-14T19:42:01.045Z,93748.72
2023-02-14T19:44:31.444Z,93752.44
2023-02-14T19:47:04.113Z,93738.16
2023-02-14T19:49:38.983Z,93742.75
2023-02-14T19:52:14.154Z,93738.09
2023-02-14T19:54:46.353Z,93732.22
2023-02-14T19:57:17.447Z,93731.66
2023-02-14T19:59:46.084Z,93743.69
2023-02-14T20:02:17.366Z,93737.28
2023-02-14T20:04:46.157Z,93728.25
2023-02-14T20:07:14.788Z,93729.19
2023-02-14T20:09:43.423Z,93732.69
2023-02-14T20:12:11.851Z,93731.97
2023-02-14T20:14:50.957Z,93739.44
2023-02-14T20:17:20.060Z,93730.03
2023-02-14T20:19:48.977Z,93741.50
2023-02-14T20:22:17.430Z,93726.31
2023-02-14T20:24:46.043Z,93726.31
2023-02-14T20:27:14.462Z,93726.03
2023-02-14T20:29:45.051Z,93718.66
2023-02-14T20:32:16.325Z,93717.78
2023-02-14T20:34:44.985Z,93719.00
2023-02-14T20:37:13.483Z,93722.41
2023-02-14T20:39:42.143Z,93717.09
2023-02-14T20:42:10.643Z,93716.09
2023-02-14T20:44:39.723Z,93708.94
2023-02-14T20:47:11.297Z,93711.09
2023-02-14T20:49:40.282Z,93717.03
2023-02-14T20:52:08.705Z,93712.06
2023-02-14T20:54:40.116Z,93707.00
2023-02-14T20:57:08.522Z,93709.97
2023-02-14T20:59:37.953Z,93706.31
2023-02-14T21:02:08.090Z,93703.84
2023-02-14T21:04:36.496Z,93704.63
2023-02-14T21:07:09.140Z,93699.06
2023-02-14T21:09:38.836Z,93693.22
2023-02-14T21:12:08.663Z,93689.16
2023-02-14T21:14:37.358Z,93695.19
2023-02-14T21:17:06.334Z,93685.72
2023-02-14T21:19:36.173Z,93686.63
2023-02-14T21:22:04.636Z,93682.34
2023-02-14T21:24:33.143Z,93684.84
2023-02-14T21:27:02.862Z,93686.63
2023-02-14T21:29:31.499Z,93691.88
2023-02-14T21:32:02.545Z,93688.75
2023-02-14T21:34:32.304Z,93689.69
2023-02-14T21:37:02.129Z,93684.97
2023-02-14T21:39:31.323Z,93689.00
2023-02-14T21:42:01.007Z,93687.47
2023-02-14T21:44:47.212Z,93687.00
2023-02-14T21:47:15.877Z,93684.91
2023-02-14T21:50:01.546Z,93680.69
2023-02-14T21:52:31.639Z,93682.66
2023-02-14T21:55:00.085Z,93682.50
2023-02-14T21:57:28.487Z,93686.53
2023-02-14T21:59:56.908Z,93679.91
2023-02-14T22:02:25.377Z,93670.84
2023-02-14T22:04:54.097Z,93672.66
2023-02-14T22:07:22.519Z,93676.88
2023-02-14T22:09:52.304Z,93670.75
2023-02-14T22:12:20.716Z,93675.25
2023-02-14T22:14:49.158Z,93668.91
2023-02-14T22:17:17.567Z,93674.84
2023-02-14T22:19:46.271Z,93671.59
2023-02-14T22:22:14.739Z,93667.25
2023-02-14T22:24:43.150Z,93673.38
2023-02-14T22:27:13.168Z,93660.28
2023-02-14T22:29:41.614Z,93662.13
2023-02-14T22:32:10.444Z,93665.00
2023-02-14T22:34:38.924Z,93662.25
2023-02-14T22:37:07.584Z,93656.84
2023-02-14T22:39:36.279Z,93651.28
2023-02-14T22:42:06.913Z,93649.13
2023-02-14T22:44:36.919Z,93659.69
2023-02-14T22:47:05.424Z,93649.06
2023-02-14T22:49:34.098Z,93648.41
2023-02-14T22:52:02.743Z,93646.28
2023-02-14T22:54:31.153Z,93645.69
2023-02-14T22:57:00.441Z,93646.59
2023-02-14T22:59:31.474Z,93645.53
2023-02-14T23:02:02.632Z,93649.19
2023-02-14T23:04:31.454Z,93646.94
2023-02-14T23:06:59.881Z,93648.28
2023-02-14T23:09:28.584Z,93640.22
2023-02-14T23:11:57.047Z,93642.38
2023-02-14T23:14:43.037Z,93641.94
2023-02-14T23:17:34.862Z,93638.50
2023-02-14T23:20:21.081Z,93635.03
2023-02-14T23:22:49.515Z,93630.28
2023-02-14T23:25:18.119Z,93624.78
2023-02-14T23:27:48.379Z,93629.38
2023-02-14T23:30:20.791Z,93620.66
2023-02-14T23:32:50.594Z,93621.50
2023-02-14T23:35:19.252Z,93619.88
2023-02-14T23:37:47.678Z,93631.13
2023-02-14T23:40:16.092Z,93628.25
2023-02-14T23:42:44.503Z,93628.16
2023-02-14T23:45:30.616Z,93630.91
2023-02-14T23:48:05.114Z,93621.72
2023-02-14T23:50:33.618Z,93618.81
2023-02-14T23:53:02.285Z,93618.38
2023-02-14T23:55:30.772Z,93620.41
2023-02-14T23:57:59.438Z,93614.66
